sensor_id;sensor_type;location;lat;lon;timestamp;pressure;altitude;pressure_sealevel;temperature;humidity
19023;BME280;35226;48.606;8.858;2023-07-30T00:00:40;95965.50;;;18.78;100.00
19023;BME280;35226;48.606;8.858;2023-07-30T00:03:05;95959.13;;;18.77;100.00
19023;BME280;35226;48.606;8.858;2023-07-30T00:05:31;95968.28;;;18.83;100.00
19023;BME280;35226;48.606;8.858;2023-07-30T00:07:56;95968.03;;;18.81;100.00
19023;BME280;35226;48.606;8.858;2023-07-30T00:10:22;95953.28;;;18.81;100.00
19023;BME280;35226;48.606;8.858;2023-07-30T00:12:47;95962.69;;;18.83;100.00
19023;BME280;35226;48.606;8.858;2023-07-30T00:15:13;95965.25;;;18.87;100.00
19023;BME280;35226;48.606;8.858;2023-07-30T00:17:39;95966.00;;;18.82;100.00
19023;BME280;35226;48.606;8.858;2023-07-30T00:20:06;95972.38;;;18.77;100.00
19023;BME280;35226;48.606;8.858;2023-07-30T00:22:32;95970.31;;;18.72;100.00
19023;BME280;35226;48.606;8.858;2023-07-30T00:24:57;95965.47;;;18.67;100.00
19023;BME280;35226;48.606;8.858;2023-07-30T00:27:22;95985.31;;;18.69;100.00
19023;BME280;35226;48.606;8.858;2023-07-30T00:29:48;95987.88;;;18.72;100.00
19023;BME280;35226;48.606;8.858;2023-07-30T00:32:13;95979.72;;;18.69;100.00
19023;BME280;35226;48.606;8.858;2023-07-30T00:34:41;95979.22;;;18.76;100.00
19023;BME280;35226;48.606;8.858;2023-07-30T00:37:06;95986.59;;;18.68;100.00
19023;BME280;35226;48.606;8.858;2023-07-30T00:39:32;95982.75;;;18.65;100.00
19023;BME280;35226;48.606;8.858;2023-07-30T00:41:57;95984.53;;;18.63;100.00
19023;BME280;35226;48.606;8.858;2023-07-30T00:44:23;95985.81;;;18.67;100.00
19023;BME280;35226;48.606;8.858;2023-07-30T00:46:48;95978.66;;;18.61;100.00
19023;BME280;35226;48.606;8.858;2023-07-30T00:49:14;95979.44;;;18.61;100.00
19023;BME280;35226;48.606;8.858;2023-07-30T00:51:41;95980.47;;;18.58;100.00
19023;BME280;35226;48.606;8.858;2023-07-30T00:54:07;95978.66;;;18.61;100.00
19023;BME280;35226;48.606;8.858;2023-07-30T00:56:33;95984.78;;;18.59;100.00
19023;BME280;35226;48.606;8.858;2023-07-30T00:58:59;95988.03;;;18.52;100.00
19023;BME280;35226;48.606;8.858;2023-07-30T01:01:25;95985.22;;;18.52;100.00
19023;BME280;35226;48.606;8.858;2023-07-30T01:03:51;95985.75;;;18.51;100.00
19023;BME280;35226;48.606;8.858;2023-07-30T01:06:17;95978.59;;;18.44;100.00
19023;BME280;35226;48.606;8.858;2023-07-30T01:08:42;95986.47;;;18.40;100.00
19023;BME280;35226;48.606;8.858;2023-07-30T01:11:08;95978.31;;;18.31;100.00
19023;BME280;35226;48.606;8.858;2023-07-30T01:13:35;95983.16;;;18.36;100.00
19023;BME280;35226;48.606;8.858;2023-07-30T01:16:01;95980.09;;;18.34;100.00
19023;BME280;35226;48.606;8.858;2023-07-30T01:18:28;95982.38;;;18.30;100.00
19023;BME280;35226;48.606;8.858;2023-07-30T01:20:57;95996.03;;;18.22;100.00
19023;BME280;35226;48.606;8.858;2023-07-30T01:23:23;95996.84;;;18.28;100.00
19023;BME280;35226;48.606;8.858;2023-07-30T01:25:50;96000.16;;;18.27;100.00
19023;BME280;35226;48.606;8.858;2023-07-30T01:28:21;95994.81;;;18.29;100.00
19023;BME280;35226;48.606;8.858;2023-07-30T01:30:47;95992.03;;;18.29;100.00
19023;BME280;35226;48.606;8.858;2023-07-30T01:33:14;95986.44;;;18.29;100.00
19023;BME280;35226;48.606;8.858;2023-07-30T01:35:41;95985.94;;;18.36;100.00
19023;BME280;35226;48.606;8.858;2023-07-30T01:38:08;95996.31;;;18.19;100.00
19023;BME280;35226;48.606;8.858;2023-07-30T01:40:34;95996.03;;;18.22;100.00
19023;BME280;35226;48.606;8.858;2023-07-30T01:42:59;95998.34;;;18.24;100.00
19023;BME280;35226;48.606;8.858;2023-07-30T01:45:25;95991.19;;;18.11;100.00
19023;BME280;35226;48.606;8.858;2023-07-30T01:47:50;95996.47;;;18.04;100.00
19023;BME280;35226;48.606;8.858;2023-07-30T01:50:16;96004.03;;;17.92;100.00
19023;BME280;35226;48.606;8.858;2023-07-30T01:52:41;96002.97;;;17.84;100.00
19023;BME280;35226;48.606;8.858;2023-07-30T01:55:07;95993.00;;;17.72;100.00
19023;BME280;35226;48.606;8.858;2023-07-30T01:57:33;96002.66;;;17.71;100.00
19023;BME280;35226;48.606;8.858;2023-07-30T01:59:58;95999.31;;;17.67;100.00
19023;BME280;35226;48.606;8.858;2023-07-30T02:02:24;95999.78;;;17.65;100.00
19023;BME280;35226;48.606;8.858;2023-07-30T02:04:49;95999.47;;;17.58;100.00
19023;BME280;35226;48.606;8.858;2023-07-30T02:07:15;95999.19;;;17.56;100.00
19023;BME280;35226;48.606;8.858;2023-07-30T02:09:40;95994.06;;;17.49;100.00
19023;BME280;35226;48.606;8.858;2023-07-30T02:12:06;95985.19;;;17.50;100.00
19023;BME280;35226;48.606;8.858;2023-07-30T02:14:32;95989.53;;;17.51;100.00
19023;BME280;35226;48.606;8.858;2023-07-30T02:17:00;95994.78;;;17.44;100.00
19023;BME280;35226;48.606;8.858;2023-07-30T02:19:25;95993.28;;;17.43;100.00
19023;BME280;35226;48.606;8.858;2023-07-30T02:21:51;95989.94;;;17.38;100.00
19023;BME280;35226;48.606;8.858;2023-07-30T02:24:16;95998.31;;;17.38;100.00
19023;BME280;35226;48.606;8.858;2023-07-30T02:26:42;95991.69;;;17.36;100.00
19023;BME280;35226;48.606;8.858;2023-07-30T02:29:07;95990.38;;;17.31;100.00
19023;BME280;35226;48.606;8.858;2023-07-30T02:31:33;95997.72;;;17.29;100.00
19023;BME280;35226;48.606;8.858;2023-07-30T02:33:58;96005.53;;;17.25;100.00
19023;BME280;35226;48.606;8.858;2023-07-30T02:36:24;96005.78;;;17.21;100.00
19023;BME280;35226;48.606;8.858;2023-07-30T02:38:49;95994.13;;;17.23;100.00
19023;BME280;35226;48.606;8.858;2023-07-30T02:41:16;96009.09;;;17.25;100.00
19023;BME280;35226;48.606;8.858;2023-07-30T02:43:42;96002.81;;;17.30;100.00
19023;BME280;35226;48.606;8.858;2023-07-30T02:46:07;96003.84;;;17.33;100.00
19023;BME280;35226;48.606;8.858;2023-07-30T02:48:33;96004.38;;;17.37;100.00
19023;BME280;35226;48.606;8.858;2023-07-30T02:50:58;95995.06;;;17.46;100.00
19023;BME280;35226;48.606;8.858;2023-07-30T02:53:24;95991.00;;;17.47;100.00
19023;BME280;35226;48.606;8.858;2023-07-30T02:55:49;95989.97;;;17.44;100.00
19023;BME280;35226;48.606;8.858;2023-07-30T02:58:14;95997.34;;;17.47;100.00
19023;BME280;35226;48.606;8.858;2023-07-30T03:00:40;95990.72;;;17.45;100.00
19023;BME280;35226;48.606;8.858;2023-07-30T03:03:05;96000.38;;;17.44;100.00
19023;BME280;35226;48.606;8.858;2023-07-30T03:05:31;96006.72;;;17.44;100.00
19023;BME280;35226;48.606;8.858;2023-07-30T03:07:56;96006.22;;;17.46;100.00
19023;BME280;35226;48.606;8.858;2023-07-30T03:10:22;96001.91;;;17.45;100.00
19023;BME280;35226;48.606;8.858;2023-07-30T03:12:47;95996.84;;;17.43;100.00
19023;BME280;35226;48.606;8.858;2023-07-30T03:15:13;95990.22;;;17.46;100.00
19023;BME280;35226;48.606;8.858;2023-07-30T03:17:38;95988.22;;;17.47;100.00
19023;BME280;35226;48.606;8.858;2023-07-30T03:20:04;95983.16;;;17.51;100.00
19023;BME280;35226;48.606;8.858;2023-07-30T03:22:30;95980.91;;;17.55;100.00
19023;BME280;35226;48.606;8.858;2023-07-30T03:24:55;95982.69;;;17.58;100.00
19023;BME280;35226;48.606;8.858;2023-07-30T03:27:21;95992.44;;;17.62;100.00
19023;BME280;35226;48.606;8.858;2023-07-30T03:29:47;95990.28;;;17.52;100.00
19023;BME280;35226;48.606;8.858;2023-07-30T03:32:12;95990.31;;;17.57;100.00
19023;BME280;35226;48.606;8.858;2023-07-30T03:34:38;95991.31;;;17.54;100.00
19023;BME280;35226;48.606;8.858;2023-07-30T03:37:05;95993.78;;;17.47;100.00
19023;BME280;35226;48.606;8.858;2023-07-30T03:39:30;96013.44;;;17.58;100.00
19023;BME280;35226;48.606;8.858;2023-07-30T03:41:56;96013.66;;;17.54;100.00
19023;BME280;35226;48.606;8.858;2023-07-30T03:44:21;96015.66;;;17.54;100.00
19023;BME280;35226;48.606;8.858;2023-07-30T03:46:47;96020.47;;;17.48;100.00
19023;BME280;35226;48.606;8.858;2023-07-30T03:49:12;96022.75;;;17.49;100.00
19023;BME280;35226;48.606;8.858;2023-07-30T03:51:38;96036.91;;;17.40;100.00
19023;BME280;35226;48.606;8.858;2023-07-30T03:54:04;96030.38;;;17.49;100.00
19023;BME280;35226;48.606;8.858;2023-07-30T03:56:30;96029.41;;;17.52;100.00
19023;BME280;35226;48.606;8.858;2023-07-30T03:58:55;96022.97;;;17.46;100.00
19023;BME280;35226;48.606;8.858;2023-07-30T04:01:21;96025.78;;;17.46;100.00
19023;BME280;35226;48.606;8.858;2023-07-30T04:03:47;96034.81;;;17.35;100.00
19023;BME280;35226;48.606;8.858;2023-07-30T04:06:12;96035.88;;;17.37;100.00
19023;BME280;35226;48.606;8.858;2023-07-30T04:08:38;96036.19;;;17.45;100.00
19023;BME280;35226;48.606;8.858;2023-07-30T04:11:03;96040.75;;;17.43;100.00
19023;BME280;35226;48.606;8.858;2023-07-30T04:13:29;96039.84;;;17.57;100.00
19023;BME280;35226;48.606;8.858;2023-07-30T04:15:54;96036.00;;;17.54;100.00
19023;BME280;35226;48.606;8.858;2023-07-30T04:18:19;96033.66;;;17.47;100.00
19023;BME280;35226;48.606;8.858;2023-07-30T04:20:45;96051.22;;;17.53;100.00
19023;BME280;35226;48.606;8.858;2023-07-30T04:23:10;96038.56;;;17.58;100.00
19023;BME280;35226;48.606;8.858;2023-07-30T04:25:36;96043.59;;;17.54;100.00
19023;BME280;35226;48.606;8.858;2023-07-30T04:28:02;96052.25;;;17.56;100.00
19023;BME280;35226;48.606;8.858;2023-07-30T04:30:27;96043.66;;;17.59;100.00
19023;BME280;35226;48.606;8.858;2023-07-30T04:32:53;96045.50;;;17.62;100.00
19023;BME280;35226;48.606;8.858;2023-07-30T04:35:19;96052.59;;;17.63;100.00
19023;BME280;35226;48.606;8.858;2023-07-30T04:37:44;96052.81;;;17.60;100.00
19023;BME280;35226;48.606;8.858;2023-07-30T04:40:10;96054.13;;;17.64;100.00
19023;BME280;35226;48.606;8.858;2023-07-30T04:42:36;96057.97;;;17.67;100.00
19023;BME280;35226;48.606;8.858;2023-07-30T04:45:02;96054.69;;;17.68;100.00
19023;BME280;35226;48.606;8.858;2023-07-30T04:47:31;96063.38;;;17.76;100.00
19023;BME280;35226;48.606;8.858;2023-07-30T04:49:56;96057.50;;;17.74;100.00
19023;BME280;35226;48.606;8.858;2023-07-30T04:52:22;96067.44;;;17.75;100.00
19023;BME280;35226;48.606;8.858;2023-07-30T04:54:47;96080.13;;;17.76;100.00
19023;BME280;35226;48.606;8.858;2023-07-30T04:57:13;96086.97;;;17.75;100.00
19023;BME280;35226;48.606;8.858;2023-07-30T04:59:38;96097.88;;;17.73;100.00
19023;BME280;35226;48.606;8.858;2023-07-30T05:02:04;96104.34;;;17.85;100.00
19023;BME280;35226;48.606;8.858;2023-07-30T05:04:29;96105.84;;;17.80;100.00
19023;BME280;35226;48.606;8.858;2023-07-30T05:06:55;96090.41;;;17.90;100.00
19023;BME280;35226;48.606;8.858;2023-07-30T05:09:20;96092.66;;;17.86;100.00
19023;BME280;35226;48.606;8.858;2023-07-30T05:11:45;96098.25;;;17.86;100.00
19023;BME280;35226;48.606;8.858;2023-07-30T05:14:11;96092.44;;;17.90;100.00
19023;BME280;35226;48.606;8.858;2023-07-30T05:16:37;96088.81;;;17.84;100.00
19023;BME280;35226;48.606;8.858;2023-07-30T05:19:03;96083.28;;;17.89;100.00
19023;BME280;35226;48.606;8.858;2023-07-30T05:21:28;96094.47;;;17.89;100.00
19023;BME280;35226;48.606;8.858;2023-07-30T05:23:54;96096.25;;;17.92;100.00
19023;BME280;35226;48.606;8.858;2023-07-30T05:26:19;96092.19;;;17.93;100.00
19023;BME280;35226;48.606;8.858;2023-07-30T05:28:45;96093.72;;;17.94;100.00
19023;BME280;35226;48.606;8.858;2023-07-30T05:31:10;96079.50;;;17.92;100.00
19023;BME280;35226;48.606;8.858;2023-07-30T05:33:35;96079.31;;;18.01;100.00
19023;BME280;35226;48.606;8.858;2023-07-30T05:36:01;96084.38;;;17.97;100.00
19023;BME280;35226;48.606;8.858;2023-07-30T05:38:27;96091.22;;;17.96;100.00
19023;BME280;35226;48.606;8.858;2023-07-30T05:40:55;96086.69;;;18.04;100.00
19023;BME280;35226;48.606;8.858;2023-07-30T05:43:20;96088.22;;;18.05;100.00
19023;BME280;35226;48.606;8.858;2023-07-30T05:45:46;96092.06;;;18.08;100.00
19023;BME280;35226;48.606;8.858;2023-07-30T05:48:11;96094.38;;;18.09;100.00
19023;BME280;35226;48.606;8.858;2023-07-30T05:50:37;96094.63;;;18.11;100.00
19023;BME280;35226;48.606;8.858;2023-07-30T05:53:02;96094.38;;;18.15;100.00
19023;BME280;35226;48.606;8.858;2023-07-30T05:55:27;96104.59;;;18.18;100.00
19023;BME280;35226;48.606;8.858;2023-07-30T05:57:53;96095.22;;;18.21;100.00
19023;BME280;35226;48.606;8.858;2023-07-30T06:00:19;96095.44;;;18.23;100.00
19023;BME280;35226;48.606;8.858;2023-07-30T06:02:44;96102.34;;;18.28;100.00
19023;BME280;35226;48.606;8.858;2023-07-30T06:05:10;96084.81;;;18.33;100.00
19023;BME280;35226;48.606;8.858;2023-07-30T06:07:36;96093.50;;;18.35;100.00
19023;BME280;35226;48.606;8.858;2023-07-30T06:10:01;96085.59;;;18.33;100.00
19023;BME280;35226;48.606;8.858;2023-07-30T06:12:26;96092.50;;;18.38;100.00
19023;BME280;35226;48.606;8.858;2023-07-30T06:14:52;96097.09;;;18.41;100.00
19023;BME280;35226;48.606;8.858;2023-07-30T06:17:17;96092.06;;;18.51;100.00
19023;BME280;35226;48.606;8.858;2023-07-30T06:19:43;96097.38;;;18.48;100.00
19023;BME280;35226;48.606;8.858;2023-07-30T06:22:08;96106.84;;;18.57;100.00
19023;BME280;35226;48.606;8.858;2023-07-30T06:24:34;96117.06;;;18.60;100.00
19023;BME280;35226;48.606;8.858;2023-07-30T06:26:59;96091.19;;;18.81;100.00
19023;BME280;35226;48.606;8.858;2023-07-30T06:29:25;96099.38;;;18.91;100.00
19023;BME280;35226;48.606;8.858;2023-07-30T06:31:50;96111.91;;;19.06;100.00
19023;BME280;35226;48.606;8.858;2023-07-30T06:34:15;96101.69;;;18.98;100.00
19023;BME280;35226;48.606;8.858;2023-07-30T06:36:41;96115.13;;;18.82;100.00
19023;BME280;35226;48.606;8.858;2023-07-30T06:39:06;96115.44;;;18.96;100.00
19023;BME280;35226;48.606;8.858;2023-07-30T06:41:32;96119.00;;;19.02;100.00
19023;BME280;35226;48.606;8.858;2023-07-30T06:43:58;96126.19;;;19.14;100.00
19023;BME280;35226;48.606;8.858;2023-07-30T06:46:24;96133.81;;;19.13;100.00
19023;BME280;35226;48.606;8.858;2023-07-30T06:48:49;96134.59;;;19.19;100.00
19023;BME280;35226;48.606;8.858;2023-07-30T06:51:18;96137.34;;;19.03;100.00
19023;BME280;35226;48.606;8.858;2023-07-30T06:53:44;96147.53;;;19.11;100.00
19023;BME280;35226;48.606;8.858;2023-07-30T06:56:09;96150.09;;;19.09;100.00
19023;BME280;35226;48.606;8.858;2023-07-30T06:58:35;96162.63;;;18.71;100.00
19023;BME280;35226;48.606;8.858;2023-07-30T07:01:00;96236.53;;;18.22;100.00
19023;BME280;35226;48.606;8.858;2023-07-30T07:03:26;96233.69;;;18.17;100.00
19023;BME280;35226;48.606;8.858;2023-07-30T07:05:53;96193.28;;;17.86;100.00
19023;BME280;35226;48.606;8.858;2023-07-30T07:08:19;96177.50;;;17.83;100.00
19023;BME280;35226;48.606;8.858;2023-07-30T07:10:44;96168.41;;;17.88;100.00
19023;BME280;35226;48.606;8.858;2023-07-30T07:13:10;96167.63;;;17.88;100.00
19023;BME280;35226;48.606;8.858;2023-07-30T07:15:35;96175.28;;;17.93;100.00
19023;BME280;35226;48.606;8.858;2023-07-30T07:18:01;96178.41;;;18.00;100.00
19023;BME280;35226;48.606;8.858;2023-07-30T07:20:26;96176.22;;;18.10;100.00
19023;BME280;35226;48.606;8.858;2023-07-30T07:22:52;96176.97;;;18.10;100.00
19023;BME280;35226;48.606;8.858;2023-07-30T07:25:18;96182.28;;;18.08;100.00
19023;BME280;35226;48.606;8.858;2023-07-30T07:27:44;96182.06;;;18.12;100.00
19023;BME280;35226;48.606;8.858;2023-07-30T07:30:10;96179.81;;;18.16;100.00
19023;BME280;35226;48.606;8.858;2023-07-30T07:32:36;96179.81;;;18.16;100.00
19023;BME280;35226;48.606;8.858;2023-07-30T07:35:04;96181.56;;;18.13;100.00
19023;BME280;35226;48.606;8.858;2023-07-30T07:37:31;96172.31;;;18.33;100.00
19023;BME280;35226;48.606;8.858;2023-07-30T07:39:57;96176.34;;;18.32;100.00
19023;BME280;35226;48.606;8.858;2023-07-30T07:42:23;96178.38;;;18.32;100.00
19023;BME280;35226;48.606;8.858;2023-07-30T07:44:48;96174.19;;;18.47;100.00
19023;BME280;35226;48.606;8.858;2023-07-30T07:47:13;96188.88;;;18.42;100.00
19023;BME280;35226;48.606;8.858;2023-07-30T07:49:39;96177.47;;;18.46;100.00
19023;BME280;35226;48.606;8.858;2023-07-30T07:52:05;96176.50;;;18.55;100.00
19023;BME280;35226;48.606;8.858;2023-07-30T07:54:30;96174.81;;;18.63;100.00
19023;BME280;35226;48.606;8.858;2023-07-30T07:56:56;96174.47;;;18.55;100.00
19023;BME280;35226;48.606;8.858;2023-07-30T07:59:21;96182.03;;;18.80;100.00
19023;BME280;35226;48.606;8.858;2023-07-30T08:01:46;96167.09;;;18.95;100.00
19023;BME280;35226;48.606;8.858;2023-07-30T08:04:12;96152.06;;;18.92;100.00
19023;BME280;35226;48.606;8.858;2023-07-30T08:06:37;96157.16;;;18.94;100.00
19023;BME280;35226;48.606;8.858;2023-07-30T08:09:03;96163.31;;;19.03;100.00
19023;BME280;35226;48.606;8.858;2023-07-30T08:11:28;96176.34;;;19.17;100.00
19023;BME280;35226;48.606;8.858;2023-07-30T08:13:54;96181.22;;;19.28;100.00
19023;BME280;35226;48.606;8.858;2023-07-30T08:16:19;96170.25;;;19.30;100.00
19023;BME280;35226;48.606;8.858;2023-07-30T08:18:44;96155.75;;;19.32;100.00
19023;BME280;35226;48.606;8.858;2023-07-30T08:21:10;96150.38;;;19.17;100.00
19023;BME280;35226;48.606;8.858;2023-07-30T08:23:35;96140.19;;;19.19;100.00
19023;BME280;35226;48.606;8.858;2023-07-30T08:26:01;96127.19;;;19.11;100.00
19023;BME280;35226;48.606;8.858;2023-07-30T08:28:26;96129.50;;;19.18;100.00
19023;BME280;35226;48.606;8.858;2023-07-30T08:30:52;96135.66;;;19.33;100.00
19023;BME280;35226;48.606;8.858;2023-07-30T08:33:17;96135.13;;;19.23;100.00
19023;BME280;35226;48.606;8.858;2023-07-30T08:35:42;96146.13;;;19.38;100.00
19023;BME280;35226;48.606;8.858;2023-07-30T08:38:08;96145.91;;;19.53;100.00
19023;BME280;35226;48.606;8.858;2023-07-30T08:40:33;96142.13;;;19.67;100.00
19023;BME280;35226;48.606;8.858;2023-07-30T08:42:59;96148.47;;;19.56;100.00
19023;BME280;35226;48.606;8.858;2023-07-30T08:45:25;96145.41;;;19.60;100.00
19023;BME280;35226;48.606;8.858;2023-07-30T08:47:51;96145.66;;;19.56;100.00
19023;BME280;35226;48.606;8.858;2023-07-30T08:50:17;96152.31;;;19.65;100.00
19023;BME280;35226;48.606;8.858;2023-07-30T08:52:43;96155.31;;;19.50;100.00
19023;BME280;35226;48.606;8.858;2023-07-30T08:55:10;96153.03;;;19.59;100.00
19023;BME280;35226;48.606;8.858;2023-07-30T08:57:37;96158.66;;;19.59;100.00
19023;BME280;35226;48.606;8.858;2023-07-30T09:00:11;96163.25;;;19.63;100.00
19023;BME280;35226;48.606;8.858;2023-07-30T09:05:08;96157.59;;;19.46;100.00
19023;BME280;35226;48.606;8.858;2023-07-30T09:07:34;96167.28;;;19.50;100.00
19023;BME280;35226;48.606;8.858;2023-07-30T09:09:59;96176.63;;;19.31;100.00
19023;BME280;35226;48.606;8.858;2023-07-30T09:12:35;96169.44;;;19.13;100.00
19023;BME280;35226;48.606;8.858;2023-07-30T09:15:05;96166.53;;;18.91;100.00
19023;BME280;35226;48.606;8.858;2023-07-30T09:17:31;96186.41;;;18.87;100.00
19023;BME280;35226;48.606;8.858;2023-07-30T09:20:01;96179.75;;;18.84;100.00
19023;BME280;35226;48.606;8.858;2023-07-30T09:22:33;96175.91;;;18.76;100.00
19023;BME280;35226;48.606;8.858;2023-07-30T09:25:02;96168.00;;;18.69;100.00
19023;BME280;35226;48.606;8.858;2023-07-30T09:27:29;96172.16;;;18.91;100.00
19023;BME280;35226;48.606;8.858;2023-07-30T09:29:59;96175.75;;;18.97;100.00
19023;BME280;35226;48.606;8.858;2023-07-30T09:32:34;96179.03;;;18.90;100.00
19023;BME280;35226;48.606;8.858;2023-07-30T09:35:18;96181.00;;;18.78;100.00
19023;BME280;35226;48.606;8.858;2023-07-30T09:37:45;96175.34;;;18.67;100.00
19023;BME280;35226;48.606;8.858;2023-07-30T09:40:12;96182.00;;;18.75;100.00
19023;BME280;35226;48.606;8.858;2023-07-30T09:42:38;96186.13;;;18.79;100.00
19023;BME280;35226;48.606;8.858;2023-07-30T09:45:06;96179.13;;;18.64;100.00
19023;BME280;35226;48.606;8.858;2023-07-30T09:47:36;96186.84;;;18.74;100.00
19023;BME280;35226;48.606;8.858;2023-07-30T09:50:02;96198.78;;;18.75;100.00
19023;BME280;35226;48.606;8.858;2023-07-30T09:52:29;96210.88;;;18.98;100.00
19023;BME280;35226;48.606;8.858;2023-07-30T09:54:57;96212.25;;;19.19;100.00
19023;BME280;35226;48.606;8.858;2023-07-30T09:57:23;96197.91;;;19.00;100.00
19023;BME280;35226;48.606;8.858;2023-07-30T09:59:48;96189.03;;;19.07;100.00
19023;BME280;35226;48.606;8.858;2023-07-30T10:02:15;96192.88;;;19.15;100.00
19023;BME280;35226;48.606;8.858;2023-07-30T10:04:43;96202.38;;;19.29;100.00
19023;BME280;35226;48.606;8.858;2023-07-30T10:07:13;96192.97;;;19.43;100.00
19023;BME280;35226;48.606;8.858;2023-07-30T10:09:42;96179.81;;;19.61;100.00
19023;BME280;35226;48.606;8.858;2023-07-30T10:12:15;96172.69;;;19.71;100.00
19023;BME280;35226;48.606;8.858;2023-07-30T10:14:42;96187.25;;;19.86;100.00
19023;BME280;35226;48.606;8.858;2023-07-30T10:17:10;96184.44;;;19.86;100.00
19023;BME280;35226;48.606;8.858;2023-07-30T10:19:36;96193.38;;;19.95;100.00
19023;BME280;35226;48.606;8.858;2023-07-30T10:24:37;96196.16;;;19.84;100.00
19023;BME280;35226;48.606;8.858;2023-07-30T10:27:09;96190.56;;;19.90;100.00
19023;BME280;35226;48.606;8.858;2023-07-30T10:29:39;96192.09;;;19.85;100.00
19023;BME280;35226;48.606;8.858;2023-07-30T10:32:07;96186.47;;;19.85;100.00
19023;BME280;35226;48.606;8.858;2023-07-30T10:34:48;96187.75;;;19.84;100.00
19023;BME280;35226;48.606;8.858;2023-07-30T10:37:24;96194.66;;;20.06;100.00
19023;BME280;35226;48.606;8.858;2023-07-30T10:39:50;96192.88;;;20.14;100.00
19023;BME280;35226;48.606;8.858;2023-07-30T10:42:16;96193.88;;;20.22;100.00
19023;BME280;35226;48.606;8.858;2023-07-30T10:44:44;96188.78;;;20.37;100.00
19023;BME280;35226;48.606;8.858;2023-07-30T10:47:10;96183.44;;;20.56;100.00
19023;BME280;35226;48.606;8.858;2023-07-30T10:49:37;96183.09;;;20.93;100.00
19023;BME280;35226;48.606;8.858;2023-07-30T10:52:24;96186.63;;;21.04;100.00
19023;BME280;35226;48.606;8.858;2023-07-30T10:54:59;96180.97;;;21.21;100.00
19023;BME280;35226;48.606;8.858;2023-07-30T10:57:30;96184.81;;;21.24;100.00
19023;BME280;35226;48.606;8.858;2023-07-30T10:59:56;96180.22;;;21.21;100.00
19023;BME280;35226;48.606;8.858;2023-07-30T11:02:22;96188.50;;;21.49;100.00
19023;BME280;35226;48.606;8.858;2023-07-30T11:04:47;96186.47;;;21.49;100.00
19023;BME280;35226;48.606;8.858;2023-07-30T11:07:17;96182.38;;;21.50;100.00
19023;BME280;35226;48.606;8.858;2023-07-30T11:09:43;96183.38;;;21.53;100.00
19023;BME280;35226;48.606;8.858;2023-07-30T11:12:09;96183.59;;;21.60;100.00
19023;BME280;35226;48.606;8.858;2023-07-30T11:14:35;96186.03;;;21.75;100.00
19023;BME280;35226;48.606;8.858;2023-07-30T11:17:01;96184.84;;;22.06;100.00
19023;BME280;35226;48.606;8.858;2023-07-30T11:19:28;96179.53;;;22.32;100.00
19023;BME280;35226;48.606;8.858;2023-07-30T11:21:55;96180.09;;;22.25;100.00
19023;BME280;35226;48.606;8.858;2023-07-30T11:24:35;96180.84;;;22.26;100.00
19023;BME280;35226;48.606;8.858;2023-07-30T11:27:01;96175.84;;;22.43;100.00
19023;BME280;35226;48.606;8.858;2023-07-30T11:29:27;96174.09;;;22.40;100.00
19023;BME280;35226;48.606;8.858;2023-07-30T11:31:56;96174.88;;;22.65;100.00
19023;BME280;35226;48.606;8.858;2023-07-30T11:34:23;96175.19;;;22.85;100.00
19023;BME280;35226;48.606;8.858;2023-07-30T11:36:48;96188.31;;;23.02;100.00
19023;BME280;35226;48.606;8.858;2023-07-30T11:39:14;96192.75;;;22.97;100.00
19023;BME280;35226;48.606;8.858;2023-07-30T11:41:40;96185.69;;;23.09;100.00
19023;BME280;35226;48.606;8.858;2023-07-30T11:44:06;96189.03;;;23.08;100.00
19023;BME280;35226;48.606;8.858;2023-07-30T11:46:32;96190.66;;;23.22;100.00
19023;BME280;35226;48.606;8.858;2023-07-30T11:49:15;96188.56;;;23.47;100.00
19023;BME280;35226;48.606;8.858;2023-07-30T11:51:42;96196.69;;;23.32;97.12
19023;BME280;35226;48.606;8.858;2023-07-30T11:54:18;96196.53;;;23.24;94.03
19023;BME280;35226;48.606;8.858;2023-07-30T11:56:44;96194.50;;;23.00;92.30
19023;BME280;35226;48.606;8.858;2023-07-30T11:59:10;96183.63;;;23.53;97.70
19023;BME280;35226;48.606;8.858;2023-07-30T12:01:36;96201.03;;;23.33;93.25
19023;BME280;35226;48.606;8.858;2023-07-30T12:04:04;96200.25;;;23.56;91.86
19023;BME280;35226;48.606;8.858;2023-07-30T12:06:44;96207.09;;;23.61;93.84
19023;BME280;35226;48.606;8.858;2023-07-30T12:09:18;96196.53;;;23.67;83.72
19023;BME280;35226;48.606;8.858;2023-07-30T12:11:56;96199.19;;;23.78;87.22
19023;BME280;35226;48.606;8.858;2023-07-30T12:14:25;96204.28;;;23.98;90.86
19023;BME280;35226;48.606;8.858;2023-07-30T12:16:58;96204.19;;;24.55;88.58
19023;BME280;35226;48.606;8.858;2023-07-30T12:19:24;96203.84;;;24.58;92.01
19023;BME280;35226;48.606;8.858;2023-07-30T12:21:49;96202.50;;;24.33;87.48
19023;BME280;35226;48.606;8.858;2023-07-30T12:24:14;96203.25;;;24.33;87.99
19023;BME280;35226;48.606;8.858;2023-07-30T12:26:40;96215.00;;;24.38;99.87
19023;BME280;35226;48.606;8.858;2023-07-30T12:29:06;96210.59;;;24.05;100.00
19023;BME280;35226;48.606;8.858;2023-07-30T12:31:31;96214.50;;;24.02;100.00
19023;BME280;35226;48.606;8.858;2023-07-30T12:33:57;96220.66;;;24.00;100.00
19023;BME280;35226;48.606;8.858;2023-07-30T12:36:22;96232.28;;;23.78;100.00
19023;BME280;35226;48.606;8.858;2023-07-30T12:38:48;96222.59;;;23.54;100.00
19023;BME280;35226;48.606;8.858;2023-07-30T12:41:13;96230.69;;;23.39;100.00
19023;BME280;35226;48.606;8.858;2023-07-30T12:43:39;96219.63;;;23.84;100.00
19023;BME280;35226;48.606;8.858;2023-07-30T12:46:04;96213.72;;;24.01;100.00
19023;BME280;35226;48.606;8.858;2023-07-30T12:48:30;96210.31;;;24.40;100.00
19023;BME280;35226;48.606;8.858;2023-07-30T12:50:55;96224.66;;;24.74;100.00